createdAt,value
2023-01-28T00:00:58.720Z,0.50
2023-01-28T00:03:55.602Z,0.50
2023-01-28T00:06:53.666Z,0.50
2023-01-28T00:09:50.455Z,0.60
2023-01-28T00:12:47.287Z,0.60
2023-01-28T00:15:44.532Z,0.60
2023-01-28T00:18:41.555Z,0.60
2023-01-28T00:21:38.321Z,0.50
2023-01-28T00:24:35.088Z,0.60
2023-01-28T00:27:31.849Z,0.50
2023-01-28T00:30:28.628Z,0.50
2023-01-28T00:33:25.399Z,0.40
2023-01-28T00:36:24.379Z,0.40
2023-01-28T00:39:21.267Z,0.50
2023-01-28T00:42:18.076Z,0.40
2023-01-28T00:45:15.239Z,0.50
2023-01-28T00:48:12.229Z,0.50
2023-01-28T00:51:10.284Z,0.40
2023-01-28T00:54:07.199Z,0.40
2023-01-28T00:57:04.019Z,0.50
2023-01-28T01:00:00.787Z,0.40
2023-01-28T01:02:57.566Z,0.30
2023-01-28T01:05:57.251Z,0.30
2023-01-28T01:08:53.997Z,0.30
2023-01-28T01:11:50.783Z,0.30
2023-01-28T01:14:47.514Z,0.30
2023-01-28T01:17:46.966Z,0.30
2023-01-28T01:20:45.663Z,0.30
2023-01-28T01:23:42.493Z,0.30
2023-01-28T01:26:39.242Z,0.20
2023-01-28T01:29:36.031Z,0.20
2023-01-28T01:32:35.090Z,0.20
2023-01-28T01:35:31.930Z,0.20
2023-01-28T01:38:29.513Z,0.30
2023-01-28T01:41:31.547Z,0.30
2023-01-28T01:45:02.726Z,0.30
2023-01-28T01:48:11.183Z,0.20
2023-01-28T01:51:13.752Z,0.30
2023-01-28T01:54:10.782Z,0.20
2023-01-28T01:57:09.944Z,0.30
2023-01-28T02:00:07.602Z,0.30
2023-01-28T02:03:04.577Z,0.30
2023-01-28T02:06:01.364Z,0.30
2023-01-28T02:08:58.425Z,0.20
2023-01-28T02:11:59.266Z,0.20
2023-01-28T02:15:06.226Z,0.20
2023-01-28T02:18:03.052Z,0.20
2023-01-28T02:21:18.350Z,0.20
2023-01-28T02:24:27.075Z,0.20
2023-01-28T02:27:57.908Z,0.20
2023-01-28T02:31:17.569Z,0.20
2023-01-28T02:34:23.101Z,0.20
2023-01-28T02:37:26.304Z,0.20
2023-01-28T02:40:29.878Z,0.10
2023-01-28T02:43:37.703Z,0.10
2023-01-28T02:46:55.753Z,0.20
2023-01-28T02:49:56.513Z,0.10
2023-01-28T02:53:30.659Z,0.20
2023-01-28T02:56:38.742Z,0.10
2023-01-28T02:59:49.680Z,0.10
2023-01-28T03:03:08.328Z,0.10
2023-01-28T03:06:11.923Z,0.10
2023-01-28T03:09:22.976Z,0.10
2023-01-28T03:12:43.115Z,0.10
2023-01-28T03:16:02.333Z,0.20
2023-01-28T03:19:17.906Z,0.10
2023-01-28T03:22:33.237Z,0.00
2023-01-28T03:25:48.711Z,0.10
2023-01-28T03:29:04.975Z,0.00
2023-01-28T03:32:20.896Z,0.00
2023-01-28T03:35:38.287Z,0.10
2023-01-28T03:38:42.391Z,0.20
2023-01-28T03:41:39.289Z,0.20
2023-01-28T03:44:54.744Z,0.10
2023-01-28T03:47:51.498Z,0.20
2023-01-28T03:50:48.893Z,0.20
2023-01-28T03:53:45.632Z,0.10
2023-01-28T03:56:42.379Z,0.00
2023-01-28T03:59:39.139Z,0.00
2023-01-28T04:02:40.043Z,-0.10
2023-01-28T04:05:36.877Z,0.10
2023-01-28T04:08:34.024Z,0.10
2023-01-28T04:11:30.758Z,0.10
2023-01-28T04:14:27.738Z,0.10
2023-01-28T04:17:24.632Z,0.00
2023-01-28T04:20:21.366Z,0.10
2023-01-28T04:23:18.115Z,0.00
2023-01-28T04:26:15.078Z,0.00
2023-01-28T04:29:11.821Z,0.10
2023-01-28T04:32:11.453Z,0.00
2023-01-28T04:35:08.708Z,0.00
2023-01-28T04:38:05.609Z,0.00
2023-01-28T04:41:02.357Z,0.10
2023-01-28T04:44:00.832Z,0.10
2023-01-28T04:46:57.612Z,0.10
2023-01-28T04:49:54.699Z,0.00
2023-01-28T04:52:51.465Z,0.10
2023-01-28T04:55:48.228Z,0.00
2023-01-28T04:58:44.970Z,0.00
2023-01-28T05:01:41.776Z,0.00
2023-01-28T05:04:38.562Z,0.00
2023-01-28T05:07:35.943Z,0.00
2023-01-28T05:10:32.694Z,-0.10
2023-01-28T05:13:29.447Z,0.00
2023-01-28T05:16:26.204Z,0.00
2023-01-28T05:19:22.982Z,0.00
2023-01-28T05:22:19.981Z,-0.10
2023-01-28T05:25:17.032Z,0.00
2023-01-28T05:28:14.004Z,-0.10
2023-01-28T05:31:10.881Z,-0.10
2023-01-28T05:34:08.492Z,-0.10
2023-01-28T05:37:05.248Z,-0.10
2023-01-28T05:40:01.998Z,-0.20
2023-01-28T05:42:58.792Z,-0.20
2023-01-28T05:45:55.571Z,-0.10
2023-01-28T05:48:52.337Z,-0.20
2023-01-28T05:51:49.777Z,-0.20
2023-01-28T05:54:46.557Z,-0.10
2023-01-28T05:57:44.548Z,-0.30
2023-01-28T06:00:41.300Z,-0.20
2023-01-28T06:03:38.043Z,-0.30
2023-01-28T06:06:34.894Z,-0.20
2023-01-28T06:09:32.088Z,-0.30
2023-01-28T06:12:28.836Z,-0.40
2023-01-28T06:15:25.996Z,-0.40
2023-01-28T06:18:22.864Z,-0.50
2023-01-28T06:21:19.627Z,-0.40
2023-01-28T06:24:16.426Z,-0.40
2023-01-28T06:27:13.236Z,-0.40
2023-01-28T06:30:10.633Z,-0.50
2023-01-28T06:33:07.384Z,-0.60
2023-01-28T06:36:06.603Z,-0.60
2023-01-28T06:39:04.317Z,-0.50
2023-01-28T06:42:01.064Z,-0.40
2023-01-28T06:44:57.801Z,-0.40
2023-01-28T06:47:54.557Z,-0.50
2023-01-28T06:50:51.434Z,-0.60
2023-01-28T06:53:48.205Z,-0.60
2023-01-28T06:56:45.057Z,-0.50
2023-01-28T06:59:41.826Z,-0.60
2023-01-28T07:02:40.060Z,-0.50
2023-01-28T07:05:36.834Z,-0.50
2023-01-28T07:08:33.607Z,-0.60
2023-01-28T07:11:30.540Z,-0.70
2023-01-28T07:14:27.604Z,-0.50
2023-01-28T07:17:24.747Z,-0.50
2023-01-28T07:20:22.246Z,-0.60
2023-01-28T07:23:19.064Z,-0.70
2023-01-28T07:26:15.895Z,-0.60
2023-01-28T07:29:12.748Z,-0.60
2023-01-28T07:32:09.571Z,-0.70
2023-01-28T07:35:06.966Z,-0.70
2023-01-28T07:38:03.768Z,-0.60
2023-01-28T07:41:00.562Z,-0.70
2023-01-28T07:43:57.311Z,-0.70
2023-01-28T07:46:54.634Z,-0.60
2023-01-28T07:49:51.375Z,-0.80
2023-01-28T07:52:48.131Z,-0.80
2023-01-28T07:55:45.005Z,-0.80
2023-01-28T07:58:41.745Z,-0.80
2023-01-28T08:01:38.999Z,-0.80
2023-01-28T08:04:35.844Z,-0.80
2023-01-28T08:07:32.641Z,-0.80
2023-01-28T08:10:29.390Z,-0.80
2023-01-28T08:13:26.299Z,-0.70
2023-01-28T08:16:23.093Z,-0.70
2023-01-28T08:19:21.757Z,-0.70
2023-01-28T08:22:19.094Z,-0.80
2023-01-28T08:25:16.176Z,-0.70
2023-01-28T08:28:13.897Z,-0.80
2023-01-28T08:31:10.840Z,-0.70
2023-01-28T08:34:07.677Z,-0.80
2023-01-28T08:37:05.897Z,-0.70
2023-01-28T08:40:02.885Z,-0.70
2023-01-28T08:42:59.833Z,-0.70
2023-01-28T08:45:56.639Z,-0.60
2023-01-28T08:48:53.427Z,-0.50
2023-01-28T08:51:50.223Z,-0.60
2023-01-28T08:54:46.980Z,-0.50
2023-01-28T08:57:43.758Z,-0.70
2023-01-28T09:00:40.942Z,-0.60
2023-01-28T09:03:37.742Z,-0.60
2023-01-28T09:06:34.653Z,-0.50
2023-01-28T09:09:31.523Z,-0.70
2023-01-28T09:12:28.289Z,-0.70
2023-01-28T09:15:25.042Z,-0.80
2023-01-28T09:18:21.800Z,-0.70
2023-01-28T09:21:18.556Z,-0.70
2023-01-28T09:24:15.384Z,-0.70
2023-01-28T09:27:12.402Z,-0.60
2023-01-28T09:30:10.410Z,-0.50
2023-01-28T09:33:08.128Z,-0.60
2023-01-28T09:36:06.738Z,-0.60
2023-01-28T09:39:04.126Z,-0.50
2023-01-28T09:42:09.692Z,-0.50
2023-01-28T09:45:37.270Z,-0.60
2023-01-28T09:48:41.039Z,-0.70
2023-01-28T09:51:52.470Z,-0.60
2023-01-28T09:55:00.299Z,-0.60
2023-01-28T09:57:57.404Z,-0.50
2023-01-28T10:01:12.148Z,-0.60
2023-01-28T10:04:38.215Z,-0.70
2023-01-28T10:07:55.273Z,-0.70
2023-01-28T10:11:09.014Z,-0.60
2023-01-28T10:14:30.032Z,-0.60
2023-01-28T10:18:03.867Z,-0.60
2023-01-28T10:21:26.914Z,-0.50
2023-01-28T10:24:36.759Z,-0.50
2023-01-28T10:27:35.969Z,-0.70
2023-01-28T10:30:35.152Z,-0.50
2023-01-28T10:33:36.949Z,-0.60
2023-01-28T10:36:34.114Z,-0.60
2023-01-28T10:39:30.844Z,-0.60
2023-01-28T10:42:28.994Z,-0.50
2023-01-28T10:45:30.423Z,-0.60
2023-01-28T10:48:32.936Z,-0.60
2023-01-28T10:51:35.121Z,-0.50
2023-01-28T10:54:31.852Z,-0.40
2023-01-28T10:57:28.775Z,-0.40
2023-01-28T11:00:30.825Z,-0.40
2023-01-28T11:03:27.735Z,-0.50
2023-01-28T11:06:29.633Z,-0.60
2023-01-28T11:09:37.574Z,-0.50
2023-01-28T11:12:34.712Z,-0.50
2023-01-28T11:15:32.618Z,-0.60
2023-01-28T11:18:52.299Z,-0.30
2023-01-28T11:21:54.579Z,-0.50
2023-01-28T11:24:51.353Z,-0.40
2023-01-28T11:27:49.922Z,-0.50
2023-01-28T11:30:51.788Z,-0.40
2023-01-28T11:34:02.173Z,-0.40
2023-01-28T11:37:18.646Z,-0.30
2023-01-28T11:40:21.398Z,-0.30
2023-01-28T11:43:21.763Z,-0.40
2023-01-28T11:46:18.535Z,-0.50
2023-01-28T11:49:37.916Z,-0.50
2023-01-28T11:53:06.893Z,-0.60
2023-01-28T11:56:20.218Z,-0.50
2023-01-28T11:59:42.925Z,-0.50
2023-01-28T12:02:44.648Z,-0.50
2023-01-28T12:05:56.906Z,-0.50
2023-01-28T12:09:29.034Z,-0.50
2023-01-28T12:12:54.829Z,-0.50
2023-01-28T12:16:10.975Z,-0.50
2023-01-28T12:19:33.422Z,-0.40
2023-01-28T12:22:57.091Z,-0.50
2023-01-28T12:26:04.587Z,-0.70
2023-01-28T12:29:14.443Z,-0.60
2023-01-28T12:32:31.600Z,-0.70
2023-01-28T12:35:32.860Z,-0.70
2023-01-28T12:39:08.458Z,-0.60
2023-01-28T12:42:05.418Z,-0.70
2023-01-28T12:45:15.224Z,-0.70
2023-01-28T12:48:20.087Z,-0.70
2023-01-28T12:51:46.407Z,-0.80
2023-01-28T12:55:15.515Z,-0.70
2023-01-28T12:58:19.843Z,-0.50
2023-01-28T13:01:42.812Z,-0.60
2023-01-28T13:04:45.763Z,-0.60
2023-01-28T13:07:57.920Z,-0.80
2023-01-28T13:10:57.885Z,-0.80
2023-01-28T13:13:55.056Z,-0.80
2023-01-28T13:16:52.115Z,-0.90
2023-01-28T13:19:49.061Z,-0.80
2023-01-28T13:22:46.099Z,-0.80
2023-01-28T13:25:49.473Z,-0.80
2023-01-28T13:28:51.382Z,-0.80
2023-01-28T13:31:52.266Z,-0.90
2023-01-28T13:34:58.752Z,-1.00
2023-01-28T13:37:57.163Z,-0.90
2023-01-28T13:41:06.374Z,-0.90
2023-01-28T13:44:03.166Z,-0.90
2023-01-28T13:47:19.803Z,-1.00
2023-01-28T13:50:20.501Z,-0.90
2023-01-28T13:53:44.310Z,-1.00
2023-01-28T13:56:59.821Z,-0.90
2023-01-28T14:00:12.989Z,-1.10
2023-01-28T14:03:24.686Z,-1.10
2023-01-28T14:07:01.584Z,-1.00
2023-01-28T14:10:13.815Z,-0.90
2023-01-28T14:13:44.509Z,-1.00
2023-01-28T14:16:52.751Z,-1.20
2023-01-28T14:19:51.059Z,-1.30
2023-01-28T14:22:48.886Z,-1.30
2023-01-28T14:25:57.553Z,-1.20
2023-01-28T14:29:10.582Z,-1.10
2023-01-28T14:32:17.037Z,-1.30
2023-01-28T14:35:19.616Z,-1.20
2023-01-28T14:38:18.949Z,-1.20
2023-01-28T14:41:26.132Z,-1.40
2023-01-28T14:44:33.587Z,-1.50
2023-01-28T14:47:30.305Z,-1.40
2023-01-28T14:50:34.668Z,-1.40
2023-01-28T14:53:56.610Z,-1.40
2023-01-28T14:56:56.266Z,-1.40
2023-01-28T14:59:57.978Z,-1.50
2023-01-28T15:02:54.824Z,-1.50
2023-01-28T15:06:13.508Z,-1.30
2023-01-28T15:09:13.195Z,-1.30
2023-01-28T15:12:10.036Z,-1.40
2023-01-28T15:15:29.030Z,-1.40
2023-01-28T15:18:37.546Z,-1.60
2023-01-28T15:21:35.743Z,-1.60
2023-01-28T15:24:34.952Z,-1.60
2023-01-28T15:27:32.351Z,-1.70
2023-01-28T15:30:31.874Z,-1.50
2023-01-28T15:33:28.654Z,-1.70
2023-01-28T15:36:26.964Z,-1.70
2023-01-28T15:39:26.061Z,-1.80
2023-01-28T15:42:26.984Z,-1.80
2023-01-28T15:45:26.118Z,-1.70
2023-01-28T15:48:30.933Z,-1.80
2023-01-28T15:51:31.733Z,-1.80
2023-01-28T15:54:30.386Z,-1.70
2023-01-28T15:57:34.975Z,-1.70
2023-01-28T16:00:31.718Z,-1.80
2023-01-28T16:03:28.597Z,-2.00
2023-01-28T16:06:38.447Z,-2.00
2023-01-28T16:09:36.060Z,-1.90
2023-01-28T16:12:32.813Z,-1.90
2023-01-28T16:15:29.591Z,-1.90
2023-01-28T16:18:38.954Z,-2.00
2023-01-28T16:21:38.526Z,-2.00
2023-01-28T16:24:36.350Z,-2.00
2023-01-28T16:27:33.406Z,-1.80
2023-01-28T16:30:30.313Z,-1.80
2023-01-28T16:33:27.295Z,-1.90
2023-01-28T16:36:24.148Z,-2.00
2023-01-28T16:39:20.901Z,-2.00
2023-01-28T16:42:17.896Z,-2.00
2023-01-28T16:45:18.716Z,-2.00
2023-01-28T16:48:15.585Z,-2.00
2023-01-28T16:51:21.364Z,-2.00
2023-01-28T16:54:18.234Z,-2.00
2023-01-28T16:57:20.611Z,-2.00
2023-01-28T17:00:20.534Z,-2.10
2023-01-28T17:03:17.286Z,-2.10
2023-01-28T17:06:18.672Z,-2.00
2023-01-28T17:09:15.622Z,-1.60
2023-01-28T17:12:12.364Z,-1.90
2023-01-28T17:15:09.495Z,-1.90
2023-01-28T17:18:06.298Z,-1.90
2023-01-28T17:21:05.482Z,-1.90
2023-01-28T17:24:03.148Z,-2.00
2023-01-28T17:27:00.145Z,-2.10
2023-01-28T17:29:56.931Z,-2.20
2023-01-28T17:32:54.140Z,-2.00
2023-01-28T17:35:50.912Z,-1.90
2023-01-28T17:38:48.587Z,-2.00
2023-01-28T17:41:45.363Z,-2.10
2023-01-28T17:44:42.137Z,-2.00
2023-01-28T17:47:39.267Z,-2.00
2023-01-28T17:50:39.185Z,-1.80
2023-01-28T17:53:36.030Z,-1.80
2023-01-28T17:56:32.899Z,-2.00
2023-01-28T17:59:29.737Z,-2.00
2023-01-28T18:02:26.559Z,-2.00
2023-01-28T18:05:23.875Z,-2.20
2023-01-28T18:08:20.627Z,-2.20
2023-01-28T18:11:19.218Z,-2.10
2023-01-28T18:14:16.005Z,-2.10
2023-01-28T18:17:12.839Z,-2.10
2023-01-28T18:20:10.684Z,-2.10
2023-01-28T18:23:07.507Z,-2.00
2023-01-28T18:26:07.243Z,-2.20
2023-01-28T18:29:04.560Z,-2.00
2023-01-28T18:32:01.389Z,-1.80
2023-01-28T18:34:58.129Z,-2.00
2023-01-28T18:37:55.446Z,-2.10
2023-01-28T18:40:56.216Z,-2.10
2023-01-28T18:43:52.966Z,-2.20
2023-01-28T18:46:50.951Z,-2.20
2023-01-28T18:49:47.787Z,-2.30
2023-01-28T18:52:44.630Z,-2.40
2023-01-28T18:55:41.388Z,-2.40
2023-01-28T18:58:38.159Z,-2.20
2023-01-28T19:01:35.469Z,-2.30
2023-01-28T19:04:32.622Z,-2.10
2023-01-28T19:07:31.147Z,-2.00
2023-01-28T19:10:27.979Z,-2.30
2023-01-28T19:13:25.224Z,-2.40
2023-01-28T19:16:22.090Z,-2.30
2023-01-28T19:19:18.876Z,-2.30
2023-01-28T19:22:16.557Z,-2.20
2023-01-28T19:25:13.793Z,-2.30
2023-01-28T19:28:10.748Z,-2.30
2023-01-28T19:31:09.678Z,-2.30
2023-01-28T19:34:06.959Z,-2.40
2023-01-28T19:37:03.728Z,-2.30
2023-01-28T19:40:00.486Z,-2.20
2023-01-28T19:42:57.303Z,-2.20
2023-01-28T19:45:57.797Z,-2.20
2023-01-28T19:48:54.695Z,-2.40
2023-01-28T19:51:51.939Z,-2.20
2023-01-28T19:54:48.673Z,-2.40
2023-01-28T19:57:45.457Z,-2.40
2023-01-28T20:00:42.222Z,-2.40
2023-01-28T20:03:39.361Z,-2.40
2023-01-28T20:06:36.333Z,-2.40
2023-01-28T20:09:33.145Z,-2.40
2023-01-28T20:12:29.881Z,-2.40
2023-01-28T20:15:26.614Z,-2.30
2023-01-28T20:18:23.397Z,-2.40
2023-01-28T20:21:20.907Z,-2.60
2023-01-28T20:24:17.796Z,-2.50
2023-01-28T20:27:14.579Z,-2.30
2023-01-28T20:30:11.877Z,-2.50
2023-01-28T20:33:08.625Z,-2.60
2023-01-28T20:36:08.055Z,-2.70
2023-01-28T20:39:04.794Z,-2.60
2023-01-28T20:42:01.828Z,-2.70
2023-01-28T20:44:58.557Z,-2.50
2023-01-28T20:47:55.351Z,-2.40
2023-01-28T20:50:52.279Z,-2.50
2023-01-28T20:53:49.604Z,-2.70
2023-01-28T20:56:48.744Z,-2.70
2023-01-28T20:59:46.527Z,-2.70
2023-01-28T21:02:45.109Z,-2.60
2023-01-28T21:05:44.716Z,-2.50
2023-01-28T21:08:41.474Z,-2.50
2023-01-28T21:11:38.276Z,-2.40
2023-01-28T21:14:35.009Z,-2.60
2023-01-28T21:17:32.060Z,-2.60
2023-01-28T21:20:29.911Z,-2.60
2023-01-28T21:23:26.650Z,-2.30
2023-01-28T21:26:24.140Z,-2.30
2023-01-28T21:29:20.889Z,-2.40
2023-01-28T21:32:17.929Z,-2.40
2023-01-28T21:35:14.743Z,-2.50
2023-01-28T21:38:11.806Z,-2.40
2023-01-28T21:41:08.933Z,-2.50
2023-01-28T21:44:05.673Z,-2.60
2023-01-28T21:47:02.424Z,-2.60
2023-01-28T21:50:00.702Z,-2.60
2023-01-28T21:52:57.479Z,-2.70
2023-01-28T21:55:54.263Z,-2.80
2023-01-28T21:59:23.349Z,-2.70
2023-01-28T22:02:22.786Z,-2.70
2023-01-28T22:05:20.543Z,-2.40
2023-01-28T22:08:17.629Z,-2.40
2023-01-28T22:11:14.370Z,-2.40
2023-01-28T22:14:11.606Z,-2.50
2023-01-28T22:17:11.148Z,-2.60
2023-01-28T22:20:08.566Z,-2.80
2023-01-28T22:23:05.310Z,-2.90
2023-01-28T22:26:02.450Z,-3.00
2023-01-28T22:28:59.194Z,-2.90
2023-01-28T22:31:56.062Z,-3.00
2023-01-28T22:34:52.930Z,-3.00
2023-01-28T22:37:49.691Z,-3.10
2023-01-28T22:40:46.428Z,-2.90
2023-01-28T22:43:43.236Z,-2.90
2023-01-28T22:46:40.105Z,-3.00
2023-01-28T22:49:36.895Z,-3.00
2023-01-28T22:52:33.647Z,-3.00
2023-01-28T22:55:32.538Z,-3.00
2023-01-28T22:58:31.517Z,-3.10
2023-01-28T23:01:28.966Z,-3.10
2023-01-28T23:04:25.741Z,-3.00
2023-01-28T23:07:22.500Z,-3.10
2023-01-28T23:10:19.548Z,-3.10
2023-01-28T23:13:22.387Z,-2.90
2023-01-28T23:16:37.776Z,-3.00
2023-01-28T23:19:53.643Z,-2.90
2023-01-28T23:23:09.128Z,-3.00
2023-01-28T23:26:07.121Z,-2.90
2023-01-28T23:29:04.025Z,-3.00
2023-01-28T23:32:03.779Z,-3.10
2023-01-28T23:35:00.533Z,-3.20
2023-01-28T23:37:57.307Z,-3.20
2023-01-28T23:40:54.890Z,-3.20
2023-01-28T23:43:51.661Z,-3.20
2023-01-28T23:46:48.476Z,-3.10
2023-01-28T23:49:45.807Z,-3.10
2023-01-28T23:52:42.564Z,-3.10
2023-01-28T23:55:40.568Z,-3.20
2023-01-28T23:58:43.812Z,-3.20
